createdAt,value
2022-10-29T00:02:02.015Z,81.68
2022-10-29T00:04:28.552Z,80.57
2022-10-29T00:06:55.000Z,79.51
2022-10-29T00:09:21.464Z,81.34
2022-10-29T00:11:47.940Z,81.21
2022-10-29T00:14:14.374Z,80.71
2022-10-29T00:16:40.802Z,80.29
2022-10-29T00:19:07.342Z,79.37
2022-10-29T00:21:34.525Z,80.30
2022-10-29T00:24:01.031Z,80.07
2022-10-29T00:26:29.539Z,79.22
2022-10-29T00:28:56.678Z,80.26
2022-10-29T00:31:24.366Z,80.15
2022-10-29T00:33:53.292Z,81.44
2022-10-29T00:36:22.387Z,81.17
2022-10-29T00:38:48.937Z,81.58
2022-10-29T00:41:18.140Z,80.80
2022-10-29T00:43:48.777Z,80.54
2022-10-29T00:46:24.478Z,80.23
2022-10-29T00:48:54.646Z,81.19
2022-10-29T00:51:21.896Z,80.34
2022-10-29T00:53:54.776Z,80.09
2022-10-29T00:56:23.965Z,79.73
2022-10-29T00:58:50.435Z,81.51
2022-10-29T01:01:17.192Z,80.62
2022-10-29T01:03:43.759Z,80.05
2022-10-29T01:06:10.295Z,80.91
2022-10-29T01:08:36.753Z,81.89
2022-10-29T01:11:44.189Z,82.05
2022-10-29T01:14:41.621Z,80.72
2022-10-29T01:17:21.508Z,81.14
2022-10-29T01:20:16.225Z,81.46
2022-10-29T01:22:58.340Z,81.10
2022-10-29T01:25:46.621Z,81.54
2022-10-29T01:28:25.891Z,82.74
2022-10-29T01:31:23.415Z,83.84
2022-10-29T01:34:17.357Z,83.92
2022-10-29T01:36:53.497Z,83.39
2022-10-29T01:39:44.938Z,82.59
2022-10-29T01:42:27.318Z,82.81
2022-10-29T01:45:11.019Z,83.46
2022-10-29T01:47:44.443Z,83.73
2022-10-29T01:50:15.497Z,83.33
2022-10-29T01:52:43.523Z,83.13
2022-10-29T01:55:09.947Z,83.01
2022-10-29T01:57:38.699Z,83.34
2022-10-29T02:00:09.376Z,82.42
2022-10-29T02:02:53.645Z,82.00
2022-10-29T02:05:33.176Z,82.76
2022-10-29T02:08:21.167Z,82.92
2022-10-29T02:11:08.470Z,83.69
2022-10-29T02:13:41.614Z,84.36
2022-10-29T02:16:10.095Z,83.82
2022-10-29T02:18:45.452Z,83.23
2022-10-29T02:21:16.080Z,82.31
2022-10-29T02:23:42.615Z,81.86
2022-10-29T02:26:09.151Z,81.72
2022-10-29T02:28:35.619Z,82.91
2022-10-29T02:31:02.082Z,81.59
2022-10-29T02:33:28.599Z,82.75
2022-10-29T02:35:55.044Z,82.92
2022-10-29T02:38:21.514Z,81.53
2022-10-29T02:40:47.964Z,82.35
2022-10-29T02:43:14.542Z,82.81
2022-10-29T02:45:41.029Z,83.46
2022-10-29T02:48:07.481Z,82.90
2022-10-29T02:50:33.926Z,83.05
2022-10-29T02:53:00.580Z,82.96
2022-10-29T02:55:27.028Z,83.85
2022-10-29T02:57:53.816Z,83.63
2022-10-29T03:00:20.498Z,84.07
2022-10-29T03:02:49.884Z,84.06
2022-10-29T03:05:16.347Z,84.56
2022-10-29T03:07:42.780Z,83.98
2022-10-29T03:10:09.639Z,83.32
2022-10-29T03:12:36.089Z,82.87
2022-10-29T03:15:02.650Z,81.67
2022-10-29T03:17:29.110Z,82.09
2022-10-29T03:19:55.551Z,81.69
2022-10-29T03:22:21.996Z,81.12
2022-10-29T03:24:48.449Z,81.47
2022-10-29T03:27:14.896Z,81.59
2022-10-29T03:29:41.400Z,81.50
2022-10-29T03:32:07.834Z,80.58
2022-10-29T03:34:34.316Z,80.83
2022-10-29T03:37:00.747Z,80.32
2022-10-29T03:39:27.192Z,79.95
2022-10-29T03:41:53.623Z,79.96
2022-10-29T03:44:20.059Z,79.04
2022-10-29T03:46:46.499Z,80.18
2022-10-29T03:49:13.000Z,80.77
2022-10-29T03:51:39.833Z,80.88
2022-10-29T03:54:06.284Z,81.02
2022-10-29T03:56:32.707Z,80.24
2022-10-29T03:58:59.281Z,80.05
2022-10-29T04:01:25.909Z,80.96
2022-10-29T04:03:52.473Z,81.16
2022-10-29T04:06:18.937Z,82.14
2022-10-29T04:08:45.468Z,81.38
2022-10-29T04:11:13.483Z,81.07
2022-10-29T04:13:40.323Z,81.16
2022-10-29T04:16:07.169Z,81.05
2022-10-29T04:18:33.640Z,81.75
2022-10-29T04:29:22.538Z,81.40
2022-10-29T04:31:49.297Z,81.38
2022-10-29T04:34:15.834Z,81.40
2022-10-29T04:36:42.284Z,81.29
2022-10-29T04:39:08.748Z,82.79
2022-10-29T04:41:35.236Z,81.85
2022-10-29T04:44:02.329Z,81.18
2022-10-29T04:46:28.885Z,81.38
2022-10-29T04:48:55.389Z,81.36
2022-10-29T04:51:24.652Z,81.59
2022-10-29T04:53:51.126Z,81.62
2022-10-29T04:56:17.995Z,81.76
2022-10-29T04:58:44.685Z,81.58
2022-10-29T05:01:11.350Z,81.30
2022-10-29T05:03:38.088Z,82.68
2022-10-29T05:06:05.810Z,82.72
2022-10-29T05:08:32.942Z,82.01
2022-10-29T05:11:03.397Z,82.39
2022-10-29T05:13:30.204Z,82.26
2022-10-29T05:15:57.006Z,82.34
2022-10-29T05:18:23.467Z,82.10
2022-10-29T05:20:53.800Z,81.98
2022-10-29T05:23:26.442Z,83.04
2022-10-29T05:25:55.730Z,83.33
2022-10-29T05:28:23.730Z,82.84
2022-10-29T05:30:52.029Z,81.96
2022-10-29T05:33:21.193Z,81.72
2022-10-29T05:35:48.142Z,81.86
2022-10-29T05:38:15.352Z,82.87
2022-10-29T05:40:44.933Z,82.94
2022-10-29T05:43:13.457Z,82.96
2022-10-29T05:45:40.271Z,82.96
2022-10-29T05:48:07.572Z,83.44
2022-10-29T05:50:34.690Z,82.36
2022-10-29T05:53:04.160Z,81.85
2022-10-29T05:55:32.959Z,81.74
2022-10-29T05:58:02.109Z,82.67
2022-10-29T06:00:30.889Z,82.34
2022-10-29T06:02:58.056Z,82.27
2022-10-29T06:05:24.809Z,82.09
2022-10-29T06:07:56.158Z,81.94
2022-10-29T06:10:23.992Z,81.43
2022-10-29T06:12:50.864Z,81.40
2022-10-29T06:15:17.799Z,81.48
2022-10-29T06:17:45.255Z,81.43
2022-10-29T06:20:13.753Z,81.63
2022-10-29T06:22:40.202Z,81.57
2022-10-29T06:25:07.250Z,82.07
2022-10-29T06:27:33.720Z,81.54
2022-10-29T06:30:00.174Z,81.85
2022-10-29T06:32:26.867Z,82.31
2022-10-29T06:34:53.309Z,82.25
2022-10-29T06:37:19.792Z,83.06
2022-10-29T06:39:46.216Z,82.58
2022-10-29T06:42:12.667Z,83.40
2022-10-29T06:44:39.135Z,82.80
2022-10-29T06:47:05.823Z,82.96
2022-10-29T06:49:32.353Z,82.41
2022-10-29T06:51:58.812Z,82.34
2022-10-29T06:54:25.244Z,81.63
2022-10-29T06:56:51.721Z,82.82
2022-10-29T06:59:18.169Z,83.09
2022-10-29T07:01:46.519Z,83.54
2022-10-29T07:04:13.105Z,83.31
2022-10-29T07:06:39.557Z,83.58
2022-10-29T07:09:06.074Z,83.45
2022-10-29T07:11:32.533Z,83.60
2022-10-29T07:13:59.009Z,83.67
2022-10-29T07:16:25.501Z,83.95
2022-10-29T07:18:53.720Z,83.65
2022-10-29T07:21:20.229Z,83.15
2022-10-29T07:23:46.680Z,83.27
2022-10-29T07:26:13.146Z,84.07
2022-10-29T07:28:39.585Z,84.38
2022-10-29T07:31:07.669Z,84.87
2022-10-29T07:33:34.212Z,85.20
2022-10-29T07:36:00.746Z,85.30
2022-10-29T07:38:27.529Z,85.18
2022-10-29T07:40:54.542Z,85.15
2022-10-29T07:43:21.651Z,85.12
2022-10-29T07:45:49.997Z,84.65
2022-10-29T07:48:16.831Z,84.88
2022-10-29T07:50:43.335Z,85.07
2022-10-29T07:53:10.267Z,85.40
2022-10-29T07:55:36.804Z,84.73
2022-10-29T07:58:05.834Z,84.61
2022-10-29T08:00:35.393Z,84.41
2022-10-29T08:03:02.018Z,84.36
2022-10-29T08:05:29.903Z,84.14
2022-10-29T08:07:57.402Z,83.90
2022-10-29T08:10:25.267Z,83.96
2022-10-29T08:12:57.349Z,84.46
2022-10-29T08:15:25.402Z,83.45
2022-10-29T08:17:52.340Z,83.88
2022-10-29T08:20:19.513Z,83.04
2022-10-29T08:22:46.307Z,82.10
2022-10-29T08:25:13.438Z,82.44
2022-10-29T08:27:40.148Z,83.19
2022-10-29T08:30:08.543Z,82.94
2022-10-29T08:32:35.577Z,83.61
2022-10-29T08:35:03.223Z,83.41
2022-10-29T08:37:29.800Z,83.09
2022-10-29T08:39:56.263Z,82.28
2022-10-29T08:42:47.008Z,82.75
2022-10-29T08:45:25.252Z,82.42
2022-10-29T08:48:46.671Z,81.86
2022-10-29T08:51:19.216Z,82.47
2022-10-29T08:54:25.023Z,82.19
2022-10-29T08:56:50.240Z,81.95
2022-10-29T08:59:20.395Z,81.83
2022-10-29T09:01:47.618Z,81.86
2022-10-29T09:04:17.064Z,81.26
2022-10-29T09:07:06.673Z,81.67
2022-10-29T09:09:46.673Z,81.53
2022-10-29T09:12:18.779Z,81.70
2022-10-29T09:15:14.512Z,80.97
2022-10-29T09:17:43.964Z,81.29
2022-10-29T09:20:30.288Z,81.15
2022-10-29T09:23:24.958Z,81.08
2022-10-29T09:26:10.770Z,81.24
2022-10-29T09:28:53.613Z,81.14
2022-10-29T09:31:42.774Z,81.05
2022-10-29T09:34:18.019Z,80.69
2022-10-29T09:36:47.538Z,80.71
2022-10-29T09:39:34.227Z,80.73
2022-10-29T09:42:08.343Z,80.28
2022-10-29T09:44:46.312Z,80.14
2022-10-29T09:47:36.187Z,79.68
2022-10-29T09:50:33.650Z,79.94
2022-10-29T09:53:00.866Z,80.01
2022-10-29T09:55:39.732Z,80.16
2022-10-29T09:58:07.017Z,79.83
2022-10-29T10:00:34.504Z,79.41
2022-10-29T10:03:16.148Z,79.20
2022-10-29T10:05:59.237Z,78.94
2022-10-29T10:08:26.011Z,78.76
2022-10-29T10:10:59.772Z,78.47
2022-10-29T10:13:38.446Z,78.44
2022-10-29T10:16:06.497Z,78.40
2022-10-29T10:18:33.069Z,78.52
2022-10-29T10:21:04.499Z,78.33
2022-10-29T10:23:40.736Z,77.75
2022-10-29T10:26:27.524Z,77.51
2022-10-29T10:29:13.296Z,77.93
2022-10-29T10:31:41.339Z,77.89
2022-10-29T10:34:15.379Z,78.02
2022-10-29T10:37:07.910Z,78.13
2022-10-29T10:39:39.566Z,78.79
2022-10-29T10:42:31.206Z,78.02
2022-10-29T10:45:12.135Z,77.99
2022-10-29T10:47:43.332Z,77.74
2022-10-29T10:50:18.185Z,77.79
2022-10-29T10:52:45.704Z,77.46
2022-10-29T10:55:24.075Z,77.66
2022-10-29T10:57:58.264Z,77.34
2022-10-29T11:00:40.522Z,77.72
2022-10-29T11:03:20.155Z,76.83
2022-10-29T11:05:56.173Z,75.92
2022-10-29T11:08:31.370Z,75.84
2022-10-29T11:11:06.928Z,75.81
2022-10-29T11:13:34.348Z,76.53
2022-10-29T11:16:18.970Z,76.54
2022-10-29T11:19:24.692Z,76.32
2022-10-29T11:22:08.310Z,77.07
2022-10-29T11:24:57.339Z,76.24
2022-10-29T11:27:34.168Z,75.20
2022-10-29T11:30:12.142Z,76.83
2022-10-29T11:33:01.491Z,74.11
2022-10-29T11:35:40.993Z,76.01
2022-10-29T11:38:14.589Z,77.68
2022-10-29T11:40:56.195Z,78.97
2022-10-29T11:43:22.681Z,77.78
2022-10-29T11:45:56.014Z,77.37
2022-10-29T11:48:44.876Z,75.62
2022-10-29T11:51:48.808Z,74.56
2022-10-29T11:54:43.298Z,76.78
2022-10-29T11:57:55.058Z,78.56
2022-10-29T12:00:24.459Z,75.92
2022-10-29T12:03:09.165Z,76.58
2022-10-29T12:06:04.522Z,73.46
2022-10-29T12:08:40.504Z,75.36
2022-10-29T12:11:31.518Z,78.44
2022-10-29T12:14:20.649Z,75.56
2022-10-29T12:17:01.873Z,75.87
2022-10-29T12:23:25.124Z,76.08
2022-10-29T12:26:39.119Z,79.68
2022-10-29T12:29:19.714Z,77.85
2022-10-29T12:32:07.458Z,76.38
2022-10-29T12:34:49.844Z,78.83
2022-10-29T12:37:42.454Z,74.45
2022-10-29T12:40:18.145Z,76.24
2022-10-29T12:42:47.336Z,78.11
2022-10-29T12:45:25.879Z,76.95
2022-10-29T12:47:59.677Z,78.94
2022-10-29T12:50:49.924Z,77.02
2022-10-29T12:53:32.075Z,76.58
2022-10-29T12:55:58.761Z,77.40
2022-10-29T12:58:48.698Z,78.29
2022-10-29T13:01:50.058Z,75.23
2022-10-29T13:04:32.160Z,75.15
2022-10-29T13:07:01.449Z,76.67
2022-10-29T13:09:35.060Z,78.62
2022-10-29T13:12:12.686Z,81.50
2022-10-29T13:14:55.046Z,80.42
2022-10-29T13:17:36.561Z,81.44
2022-10-29T13:20:21.482Z,77.07
2022-10-29T13:22:54.124Z,77.00
2022-10-29T13:25:42.308Z,79.59
2022-10-29T13:28:08.702Z,78.20
2022-10-29T13:30:43.770Z,77.80
2022-10-29T13:33:30.432Z,79.60
2022-10-29T13:36:04.392Z,80.77
2022-10-29T13:38:57.919Z,81.97
2022-10-29T13:41:40.211Z,81.79
2022-10-29T13:44:19.417Z,82.54
2022-10-29T13:47:05.161Z,83.24
2022-10-29T13:49:37.631Z,83.92
2022-10-29T13:52:06.568Z,84.15
2022-10-29T13:54:44.027Z,84.41
2022-10-29T13:57:13.472Z,83.75
2022-10-29T13:59:48.782Z,84.67
2022-10-29T14:02:42.154Z,84.40
2022-10-29T14:05:12.652Z,84.57
2022-10-29T14:07:51.879Z,83.47
2022-10-29T14:10:24.144Z,81.83
2022-10-29T14:12:55.750Z,81.47
2022-10-29T14:15:22.681Z,83.32
2022-10-29T14:17:49.134Z,83.64
2022-10-29T14:20:21.812Z,83.05
2022-10-29T14:22:48.456Z,83.43
2022-10-29T14:25:36.147Z,82.48
2022-10-29T14:28:24.259Z,82.30
2022-10-29T14:31:02.042Z,81.93
2022-10-29T14:33:31.727Z,82.82
2022-10-29T14:36:11.284Z,82.75
2022-10-29T14:38:44.123Z,82.85
2022-10-29T14:41:11.587Z,80.92
2022-10-29T14:43:39.427Z,81.48
2022-10-29T14:46:12.891Z,80.37
2022-10-29T14:48:46.700Z,80.80
2022-10-29T14:51:20.097Z,76.62
2022-10-29T14:53:57.481Z,79.98
2022-10-29T14:56:32.720Z,79.52
2022-10-29T14:59:01.489Z,78.44
2022-10-29T15:01:28.208Z,79.88
2022-10-29T15:04:00.512Z,80.38
2022-10-29T15:06:29.175Z,80.61
2022-10-29T15:09:01.303Z,80.14
2022-10-29T15:11:39.834Z,80.68
2022-10-29T15:14:30.870Z,80.42
2022-10-29T15:16:58.135Z,80.59
2022-10-29T15:19:24.832Z,80.97
2022-10-29T15:22:11.365Z,80.06
2022-10-29T15:24:38.594Z,79.74
2022-10-29T15:27:06.433Z,80.39
2022-10-29T15:29:43.051Z,79.72
2022-10-29T15:32:15.016Z,80.31
2022-10-29T15:34:48.402Z,80.15
2022-10-29T15:37:33.187Z,80.03
2022-10-29T15:40:07.031Z,80.08
2022-10-29T15:42:35.976Z,80.44
2022-10-29T15:45:15.286Z,80.69
2022-10-29T15:47:42.754Z,80.16
2022-10-29T15:50:15.495Z,80.29
2022-10-29T15:53:09.905Z,80.65
2022-10-29T15:55:38.468Z,80.83
2022-10-29T15:58:10.908Z,80.15
2022-10-29T16:00:37.774Z,79.91
2022-10-29T16:03:14.796Z,80.16
2022-10-29T16:05:42.923Z,79.67
2022-10-29T16:08:23.573Z,80.49
2022-10-29T16:10:50.507Z,80.41
2022-10-29T16:13:18.053Z,80.56
2022-10-29T16:15:44.557Z,79.96
2022-10-29T16:18:11.017Z,79.61
2022-10-29T16:20:37.578Z,79.00
2022-10-29T16:23:04.191Z,79.09
2022-10-29T16:25:30.671Z,79.53
2022-10-29T16:27:57.431Z,78.37
2022-10-29T16:30:24.361Z,77.95
2022-10-29T16:32:52.386Z,78.71
2022-10-29T16:35:24.338Z,77.56
2022-10-29T16:37:52.078Z,78.45
2022-10-29T16:40:20.833Z,78.32
2022-10-29T16:42:48.088Z,78.29
2022-10-29T16:45:22.527Z,78.61
2022-10-29T16:47:51.861Z,77.73
2022-10-29T16:50:21.050Z,77.62
2022-10-29T16:52:48.016Z,77.73
2022-10-29T16:55:14.781Z,77.58
2022-10-29T16:57:41.301Z,77.71
2022-10-29T17:00:08.464Z,77.51
2022-10-29T17:02:35.007Z,77.58
2022-10-29T17:05:01.538Z,77.66
2022-10-29T17:07:28.100Z,77.60
2022-10-29T17:09:54.548Z,77.92
2022-10-29T17:12:21.321Z,77.61
2022-10-29T17:14:47.823Z,78.36
2022-10-29T17:17:14.401Z,78.02
2022-10-29T17:19:40.888Z,77.68
2022-10-29T17:22:10.484Z,77.73
2022-10-29T17:24:37.325Z,77.41
2022-10-29T17:27:03.957Z,77.35
2022-10-29T17:29:35.989Z,77.29
2022-10-29T17:34:35.743Z,77.61
2022-10-29T17:37:02.254Z,76.95
2022-10-29T17:39:28.795Z,77.55
2022-10-29T17:41:55.439Z,77.43
2022-10-29T17:44:21.930Z,77.24
2022-10-29T17:46:48.936Z,77.26
2022-10-29T17:49:15.559Z,77.76
2022-10-29T17:51:42.059Z,77.69
2022-10-29T17:54:08.908Z,77.13
2022-10-29T17:56:35.345Z,78.21
2022-10-29T17:59:01.811Z,78.31
2022-10-29T18:01:28.493Z,78.69
2022-10-29T18:03:55.025Z,78.02
2022-10-29T18:06:21.534Z,77.60
2022-10-29T18:08:47.994Z,77.08
2022-10-29T18:11:18.588Z,77.29
2022-10-29T18:13:46.393Z,77.20
2022-10-29T18:16:20.778Z,77.76
2022-10-29T18:19:01.685Z,76.95
2022-10-29T18:21:30.506Z,77.37
2022-10-29T18:23:57.080Z,77.87
2022-10-29T18:26:31.821Z,77.31
2022-10-29T18:29:03.672Z,77.42
2022-10-29T18:31:31.280Z,77.09
2022-10-29T18:33:59.731Z,77.52
2022-10-29T18:36:26.407Z,77.81
2022-10-29T18:38:54.563Z,77.73
2022-10-29T18:41:22.028Z,78.12
2022-10-29T18:43:49.042Z,77.66
2022-10-29T18:46:16.494Z,77.91
2022-10-29T18:48:47.910Z,77.75
2022-10-29T18:51:25.707Z,77.65
2022-10-29T18:53:54.138Z,77.80
2022-10-29T18:56:22.389Z,77.85
2022-10-29T18:58:49.971Z,77.84
2022-10-29T19:01:19.523Z,77.95
2022-10-29T19:03:57.246Z,77.35
2022-10-29T19:06:25.916Z,77.55
2022-10-29T19:08:52.601Z,78.06
2022-10-29T19:11:22.125Z,77.45
2022-10-29T19:14:53.637Z,77.96
2022-10-29T19:17:20.116Z,77.70
2022-10-29T19:19:46.580Z,78.23
2022-10-29T19:22:13.078Z,78.50
2022-10-29T19:24:39.592Z,78.07
2022-10-29T19:27:06.158Z,77.70
2022-10-29T19:29:32.602Z,78.42
2022-10-29T19:31:59.238Z,78.32
2022-10-29T19:34:25.827Z,78.17
2022-10-29T19:36:52.580Z,78.61
2022-10-29T19:41:45.796Z,79.33
2022-10-29T19:44:12.304Z,78.75
2022-10-29T19:46:38.744Z,78.81
2022-10-29T19:49:08.438Z,78.49
2022-10-29T19:51:34.996Z,78.18
2022-10-29T19:54:03.955Z,78.22
2022-10-29T19:56:30.498Z,77.56
2022-10-29T19:58:56.963Z,78.20
2022-10-29T20:01:23.589Z,78.03
2022-10-29T20:03:50.264Z,78.59
2022-10-29T20:06:17.745Z,78.90
2022-10-29T20:08:44.302Z,78.68
2022-10-29T20:11:10.799Z,78.78
2022-10-29T20:13:37.925Z,79.15
2022-10-29T20:16:13.520Z,79.15
2022-10-29T20:18:40.058Z,79.51
2022-10-29T20:21:07.067Z,79.14
2022-10-29T20:23:33.713Z,79.42
2022-10-29T20:26:00.199Z,78.78
2022-10-29T20:28:27.107Z,78.77
2022-10-29T20:31:12.027Z,78.86
2022-10-29T20:33:38.841Z,79.22
2022-10-29T20:36:05.792Z,78.98
2022-10-29T20:38:32.363Z,79.37
2022-10-29T20:40:58.836Z,78.87
2022-10-29T20:43:25.654Z,78.47
2022-10-29T20:45:52.228Z,78.84
2022-10-29T20:48:18.857Z,79.13
2022-10-29T20:50:51.905Z,78.97
2022-10-29T20:55:44.986Z,80.00
2022-10-29T20:58:11.469Z,79.30
2022-10-29T21:00:38.472Z,78.95
2022-10-29T21:03:04.963Z,79.53
2022-10-29T21:05:31.418Z,79.24
2022-10-29T21:07:58.717Z,79.72
2022-10-29T21:10:25.510Z,79.30
2022-10-29T21:12:51.987Z,79.76
2022-10-29T21:15:18.470Z,79.94
2022-10-29T21:17:44.947Z,79.17
2022-10-29T21:20:11.455Z,79.38
2022-10-29T21:22:37.937Z,79.32
2022-10-29T21:25:04.706Z,79.13
2022-10-29T21:27:31.195Z,79.59
2022-10-29T21:29:57.702Z,79.69
2022-10-29T21:32:24.191Z,80.12
2022-10-29T21:34:50.806Z,79.59
2022-10-29T21:37:17.325Z,79.45
2022-10-29T21:39:43.827Z,79.73
2022-10-29T21:42:10.320Z,79.40
2022-10-29T21:44:36.836Z,79.88
2022-10-29T21:47:03.447Z,79.66
2022-10-29T21:49:29.929Z,79.60
2022-10-29T21:51:56.505Z,79.33
2022-10-29T21:54:24.433Z,79.97
2022-10-29T21:56:53.894Z,80.28
2022-10-29T21:59:20.392Z,80.58
2022-10-29T22:01:46.959Z,81.22
2022-10-29T22:04:13.533Z,80.54
2022-10-29T22:06:40.164Z,80.44
2022-10-29T22:09:06.695Z,80.05
2022-10-29T22:11:33.167Z,79.75
2022-10-29T22:13:59.940Z,79.80
2022-10-29T22:16:26.491Z,79.89
2022-10-29T22:18:53.780Z,79.78
2022-10-29T22:21:22.813Z,79.28
2022-10-29T22:23:52.275Z,79.29
2022-10-29T22:26:22.006Z,80.17
2022-10-29T22:28:48.524Z,80.03
2022-10-29T22:31:18.001Z,80.54
2022-10-29T22:33:45.473Z,80.22
2022-10-29T22:36:14.981Z,81.05
2022-10-29T22:38:42.433Z,80.72
2022-10-29T22:41:11.800Z,80.75
2022-10-29T22:43:38.795Z,81.14
2022-10-29T22:46:07.291Z,80.54
2022-10-29T22:48:35.106Z,80.05
2022-10-29T22:51:04.946Z,80.01
2022-10-29T22:53:32.131Z,80.20
2022-10-29T22:55:59.597Z,80.02
2022-10-29T22:58:26.212Z,79.68
2022-10-29T23:01:05.960Z,80.02
2022-10-29T23:03:33.784Z,80.07
2022-10-29T23:06:02.671Z,80.83
2022-10-29T23:08:30.232Z,80.75
2022-10-29T23:10:57.067Z,81.48
2022-10-29T23:13:23.616Z,81.31
2022-10-29T23:15:51.888Z,80.93
2022-10-29T23:18:18.999Z,81.22
2022-10-29T23:20:45.990Z,80.71
2022-10-29T23:23:13.684Z,80.72
2022-10-29T23:25:41.607Z,81.02
2022-10-29T23:28:08.874Z,81.02
2022-10-29T23:30:35.737Z,80.88
2022-10-29T23:33:02.280Z,80.62
2022-10-29T23:35:29.036Z,80.38
2022-10-29T23:37:55.764Z,81.42
2022-10-29T23:40:22.505Z,81.94
2022-10-29T23:42:49.010Z,81.33
2022-10-29T23:45:16.927Z,81.33
2022-10-29T23:47:43.392Z,81.20
2022-10-29T23:50:10.467Z,80.73
2022-10-29T23:52:37.158Z,80.59
2022-10-29T23:55:03.776Z,80.31
2022-10-29T23:57:30.292Z,80.62
2022-10-29T23:59:56.781Z,80.29
